Terminal Aerodrome Forecast
Issued by NWS

Current Version | Previous Version | Text Only | Print | Product List | Glossary On
Versions: 1 2 3 4 5 6 7 8 9 10 11 12 13 14 15 16 17 18 19 20 21 22 23 24 25 26 27 28 29 30 31 32 33 34
209
FTUS41 KGYX 221728
TAFPSM
TAF
KPSM 221728Z 2218/2318 03009KT P6SM OVC007
      TEMPO 2219/2221 P6SM -DZ
     FM230000 04008KT P6SM -DZ OVC012
     FM231200 03008KT P6SM -SHSN OVC012=

USA.gov is the U.S. government's official web portal to all federal, state and local government web resources and services.